sensor_id;sensor_type;location;lat;lon;timestamp;temperature;humidity
66610;DHT22;53468;48.276;14.416;2023-05-17T07:50:50;9.80;99.90
66610;DHT22;53468;48.276;14.416;2023-05-17T07:55:55;9.90;99.90
66610;DHT22;53468;48.276;14.416;2023-05-17T08:01:15;9.90;99.90
66610;DHT22;53468;48.276;14.416;2023-05-17T08:06:52;9.90;99.90
66610;DHT22;53468;48.276;14.416;2023-05-17T08:18:30;10.10;99.90
66610;DHT22;53468;48.276;14.416;2023-05-17T08:25:00;10.00;99.90
66610;DHT22;53468;48.276;14.416;2023-05-17T08:42:26;9.90;99.90
66610;DHT22;53468;48.276;14.416;2023-05-17T08:54:20;10.10;99.90
66610;DHT22;53468;48.276;14.416;2023-05-17T13:29:36;12.40;99.90
66610;DHT22;53468;48.276;14.416;2023-05-17T13:35:00;12.50;99.90
66610;DHT22;53468;48.276;14.416;2023-05-17T14:10:15;13.40;99.90
66610;DHT22;53468;48.276;14.416;2023-05-17T14:16:19;13.20;99.90
66610;DHT22;53468;48.276;14.416;2023-05-17T14:22:02;13.10;99.90
66610;DHT22;53468;48.276;14.416;2023-05-17T14:28:11;13.00;99.90
66610;DHT22;53468;48.276;14.416;2023-05-17T14:33:52;12.90;99.90
66610;DHT22;53468;48.276;14.416;2023-05-17T14:39:57;12.70;99.90
66610;DHT22;53468;48.276;14.416;2023-05-17T15:15:20;11.70;99.90
66610;DHT22;53468;48.276;14.416;2023-05-17T15:20:49;11.60;99.90
66610;DHT22;53468;48.276;14.416;2023-05-17T15:26:51;11.60;99.90
66610;DHT22;53468;48.276;14.416;2023-05-17T15:38:02;11.60;99.90
66610;DHT22;53468;48.276;14.416;2023-05-17T15:43:42;11.50;99.90
66610;DHT22;53468;48.276;14.416;2023-05-17T15:49:40;11.50;99.90
66610;DHT22;53468;48.276;14.416;2023-05-17T15:55:07;11.60;99.90
66610;DHT22;53468;48.276;14.416;2023-05-17T16:00:17;11.50;99.90
66610;DHT22;53468;48.276;14.416;2023-05-17T16:06:05;11.60;99.90
66610;DHT22;53468;48.276;14.416;2023-05-17T16:11:39;11.70;99.90
66610;DHT22;53468;48.276;14.416;2023-05-17T16:16:58;11.60;99.90
66610;DHT22;53468;48.276;14.416;2023-05-17T16:22:23;11.70;99.90
66610;DHT22;53468;48.276;14.416;2023-05-17T16:33:44;11.70;99.90
66610;DHT22;53468;48.276;14.416;2023-05-17T16:38:53;11.50;99.90
66610;DHT22;53468;48.276;14.416;2023-05-17T16:44:21;11.40;99.90
66610;DHT22;53468;48.276;14.416;2023-05-17T16:49:56;11.40;99.90
66610;DHT22;53468;48.276;14.416;2023-05-17T16:55:50;11.40;99.90
66610;DHT22;53468;48.276;14.416;2023-05-17T17:01:17;11.30;99.90
66610;DHT22;53468;48.276;14.416;2023-05-17T17:07:45;11.30;99.90
66610;DHT22;53468;48.276;14.416;2023-05-17T17:13:05;11.30;99.90
66610;DHT22;53468;48.276;14.416;2023-05-17T17:18:35;11.20;99.90
66610;DHT22;53468;48.276;14.416;2023-05-17T17:24:22;11.20;99.90
66610;DHT22;53468;48.276;14.416;2023-05-17T17:30:07;11.00;99.90
66610;DHT22;53468;48.276;14.416;2023-05-17T17:35:31;11.10;99.90
66610;DHT22;53468;48.276;14.416;2023-05-17T17:40:53;11.00;99.90
66610;DHT22;53468;48.276;14.416;2023-05-17T17:46:23;11.00;99.90
66610;DHT22;53468;48.276;14.416;2023-05-17T17:52:13;10.90;99.90
66610;DHT22;53468;48.276;14.416;2023-05-17T18:15:19;10.50;99.90
66610;DHT22;53468;48.276;14.416;2023-05-17T18:21:29;10.50;99.90
66610;DHT22;53468;48.276;14.416;2023-05-17T18:26:57;10.60;99.90
66610;DHT22;53468;48.276;14.416;2023-05-17T18:32:23;10.60;99.90
66610;DHT22;53468;48.276;14.416;2023-05-17T18:43:58;10.50;99.90
66610;DHT22;53468;48.276;14.416;2023-05-17T18:55:59;10.40;99.90
66610;DHT22;53468;48.276;14.416;2023-05-17T19:01:41;10.20;99.90
66610;DHT22;53468;48.276;14.416;2023-05-17T19:06:47;10.20;99.90
66610;DHT22;53468;48.276;14.416;2023-05-17T19:12:50;10.20;99.90
66610;DHT22;53468;48.276;14.416;2023-05-17T19:18:01;10.20;99.90
66610;DHT22;53468;48.276;14.416;2023-05-17T19:23:45;10.30;99.90
66610;DHT22;53468;48.276;14.416;2023-05-17T19:35:54;10.30;99.90
66610;DHT22;53468;48.276;14.416;2023-05-17T19:41:07;10.30;99.90
66610;DHT22;53468;48.276;14.416;2023-05-17T19:46:26;10.20;99.90
66610;DHT22;53468;48.276;14.416;2023-05-17T19:51:58;10.10;99.90
66610;DHT22;53468;48.276;14.416;2023-05-17T19:57:13;10.10;99.90
66610;DHT22;53468;48.276;14.416;2023-05-17T20:02:19;10.20;99.90
66610;DHT22;53468;48.276;14.416;2023-05-17T20:07:31;10.10;99.90
66610;DHT22;53468;48.276;14.416;2023-05-17T20:12:38;10.10;99.90
66610;DHT22;53468;48.276;14.416;2023-05-17T20:18:37;10.10;99.90
66610;DHT22;53468;48.276;14.416;2023-05-17T20:23:52;10.00;99.90
66610;DHT22;53468;48.276;14.416;2023-05-17T20:29:14;10.00;99.90
66610;DHT22;53468;48.276;14.416;2023-05-17T20:34:25;10.00;99.90
66610;DHT22;53468;48.276;14.416;2023-05-17T20:39:34;10.00;99.90
66610;DHT22;53468;48.276;14.416;2023-05-17T20:44:51;10.10;99.90
66610;DHT22;53468;48.276;14.416;2023-05-17T20:49:57;10.00;99.90
66610;DHT22;53468;48.276;14.416;2023-05-17T20:55:08;9.90;99.90
66610;DHT22;53468;48.276;14.416;2023-05-17T21:00:13;9.90;99.90
66610;DHT22;53468;48.276;14.416;2023-05-17T21:05:21;9.90;99.90
66610;DHT22;53468;48.276;14.416;2023-05-17T21:10:53;9.90;99.90
66610;DHT22;53468;48.276;14.416;2023-05-17T21:15:57;10.00;99.90
66610;DHT22;53468;48.276;14.416;2023-05-17T21:21:06;9.90;99.90
66610;DHT22;53468;48.276;14.416;2023-05-17T21:26:13;9.90;99.90
66610;DHT22;53468;48.276;14.416;2023-05-17T21:31:22;10.00;99.90
66610;DHT22;53468;48.276;14.416;2023-05-17T21:36:26;9.90;99.90
66610;DHT22;53468;48.276;14.416;2023-05-17T21:41:33;10.00;99.90
66610;DHT22;53468;48.276;14.416;2023-05-17T21:46:40;10.00;99.90
66610;DHT22;53468;48.276;14.416;2023-05-17T21:51:55;10.00;99.90
66610;DHT22;53468;48.276;14.416;2023-05-17T21:57:04;10.00;99.90
66610;DHT22;53468;48.276;14.416;2023-05-17T22:02:12;10.00;99.90
66610;DHT22;53468;48.276;14.416;2023-05-17T22:07:27;9.90;99.90
66610;DHT22;53468;48.276;14.416;2023-05-17T22:12:43;10.00;99.90
66610;DHT22;53468;48.276;14.416;2023-05-17T22:17:53;10.00;99.90
66610;DHT22;53468;48.276;14.416;2023-05-17T22:23:00;10.00;99.90
66610;DHT22;53468;48.276;14.416;2023-05-17T22:28:09;9.90;99.90
66610;DHT22;53468;48.276;14.416;2023-05-17T22:33:13;9.90;99.90
66610;DHT22;53468;48.276;14.416;2023-05-17T22:38:18;9.90;99.90
66610;DHT22;53468;48.276;14.416;2023-05-17T22:43:26;9.80;99.90
66610;DHT22;53468;48.276;14.416;2023-05-17T22:48:32;9.80;99.90
66610;DHT22;53468;48.276;14.416;2023-05-17T22:53:43;9.80;99.90
66610;DHT22;53468;48.276;14.416;2023-05-17T22:59:08;9.80;99.90
66610;DHT22;53468;48.276;14.416;2023-05-17T23:04:28;9.70;99.90
66610;DHT22;53468;48.276;14.416;2023-05-17T23:09:34;9.70;99.90
66610;DHT22;53468;48.276;14.416;2023-05-17T23:15:00;9.70;99.90
66610;DHT22;53468;48.276;14.416;2023-05-17T23:20:04;9.60;99.90
66610;DHT22;53468;48.276;14.416;2023-05-17T23:25:10;9.70;99.90
66610;DHT22;53468;48.276;14.416;2023-05-17T23:30:35;9.70;99.90
66610;DHT22;53468;48.276;14.416;2023-05-17T23:35:40;9.70;99.90
66610;DHT22;53468;48.276;14.416;2023-05-17T23:40:50;9.70;99.90
66610;DHT22;53468;48.276;14.416;2023-05-17T23:45:56;9.70;99.90
66610;DHT22;53468;48.276;14.416;2023-05-17T23:51:18;9.60;99.90
66610;DHT22;53468;48.276;14.416;2023-05-17T23:56:22;9.60;99.90
